Ungava - eastern half: Past 24 Hour Conditions

 

Qikiqtarjuaq Airport

02:00 PM EDT 23 April 2014
This table is a summary of hourly weather conditions for the past 24 hours.
Date / Time
(EDT)
Wind(knots) Conditions Visibility(km) Pressure(kPa) Air tempC) Relative humidity(%) Dew pointC) Wind Chill
23 April 2014
14:00 SSW 7 Sunny 24 102.0 -12 67 -17 -19
13:00 SSW 8 Sunny 24 102.0 -13 68 -18 -21
12:00 SSW 9 Sunny 24 102.0 -13 68 -18 -21
11:00 SSW 9 Sunny 24 102.0 -14 68 -19 -22
10:00 SSW 8 Sunny 24 102.0 -15 67 -20 -23
9:00 SSW 10 Sunny 24 102.0 -16 68 -21 -25
8:00 SSW 11 Sunny 24 101.9 -17 66 -22 -26
7:00 SSW 12 Sunny 24 101.9 -18 69 -22 -28
6:00 SSW 11 Sunny 24 101.8 -19 69 -23 -29
5:00 SSW 10 Sunny 16 101.8 -18 68 -23 -28
4:00 SSW 9 Sunny 16 101.8 -19 72 -23 -29
3:00 S 9 Clear 16 101.8 -19 71 -23 -28
2:00 SSW 10 Clear 16 101.8 -20 75 -23 -30
1:00 SSW 8 Clear 16 101.7 -19 76 -22 -27
0:00 N/A N/A N/A N/A N/A N/A N/A *
22 April 2014
23:00 SSW 11 Clear 16 101.7 -18 74 -22 -28
22:00 SSW 11 Clear 16 101.8 -19 76 -22 -29
21:00 SSW 11 Clear 16 101.8 -22 79 -25 -33
20:00 S 5 Sunny 16 101.7 -18 78 -21 -24
19:00 calm Sunny 16 101.7 -16 78 -19 *
18:00 calm Sunny 24 101.7 -16 76 -19 *
17:00 calm Sunny 24 101.7 -15 74 -18 *
16:00 N 4 Sunny 24 101.6 -14 75 -18 -19
15:00 NE 3 Sunny 24 101.6 -14 71 -18 -18
14:00 NE 5 Sunny 24 101.6 -14 71 -18 -19
 
Map of Arctic - Eastern Arctic marine weather areas Baker Lake Airport Chesterfield Inlet Airport Coral Harbour Airport Gjoa Haven Airport Kugaaruk Airport Rankin Inlet Airport Shepherd Bay Airport Whale Cove Airport Arctic Bay Brevoort Island Qikiqtarjuaq Airport Cape Dorset Airport Cape Dyer Cape Hooper Clyde Airport Grise Fiord Airport Hall Beach Airport Igloolik Airport Iqaluit Airport Longstaff Bluff Pangnirtung Airport Pond Inlet Airport Repulse Bay Airport Resolute Airport Resolution Island Rowley Island Airport Taloyoak Airport Wager Bay Akulivik Airport Ivujivik Airport Puvirnituq Airport Kangiqsujuaq Airport Kangirsuk Airport Quaqtaq Airport Tasiujaq Airport Cape Kakkiviak Cape Kiglapait Nain Airport Saglek Cape Mercy Kimmirut Airport Aupaluk Airport Salluit Airport Kangiqsualujjuaq Airport Fort Ross
Legend: buoyBuoy land stationLand Station